createdAt,value
2018-02-14T00:01:20.124Z,98978
2018-02-14T00:03:25.704Z,98983
2018-02-14T00:05:30.943Z,98983
2018-02-14T00:07:37.235Z,98981
2018-02-14T00:09:42.556Z,98977
2018-02-14T00:11:47.876Z,98982
2018-02-14T00:13:54.014Z,98978
2018-02-14T00:15:59.285Z,98979
2018-02-14T00:18:04.559Z,98987
2018-02-14T00:20:10.260Z,98988
2018-02-14T00:22:15.577Z,98981
2018-02-14T00:24:21.557Z,98990
2018-02-14T00:26:27.786Z,98989
2018-02-14T00:28:33.755Z,98995
2018-02-14T00:30:39.759Z,98998
2018-02-14T00:32:45.477Z,98998
2018-02-14T00:34:51.196Z,98999
2018-02-14T00:36:56.996Z,99001
2018-02-14T00:39:03.664Z,98998
2018-02-14T00:41:09.527Z,99003
2018-02-14T00:43:16.405Z,98996
2018-02-14T00:45:21.789Z,98994
2018-02-14T00:47:27.392Z,99000
2018-02-14T00:49:32.970Z,99000
2018-02-14T00:51:38.960Z,99003
2018-02-14T00:53:44.642Z,99004
2018-02-14T00:55:50.476Z,99007
2018-02-14T00:57:56.288Z,99008
2018-02-14T01:00:01.756Z,99018
2018-02-14T01:02:07.570Z,99011
2018-02-14T01:04:13.826Z,99016
2018-02-14T01:06:19.099Z,99018
2018-02-14T01:08:24.832Z,99017
2018-02-14T01:10:33.128Z,99017
2018-02-14T01:12:39.052Z,99016
2018-02-14T01:14:45.242Z,99021
2018-02-14T01:16:51.289Z,99019
2018-02-14T01:18:58.237Z,99020
2018-02-14T01:21:04.249Z,99025
2018-02-14T01:23:10.781Z,99018
2018-02-14T01:25:17.510Z,99017
2018-02-14T01:27:23.180Z,99018
2018-02-14T01:29:29.882Z,99018
2018-02-14T01:31:36.341Z,99020
2018-02-14T01:33:42.343Z,99022
2018-02-14T01:35:47.888Z,99022
2018-02-14T01:37:53.554Z,99026
2018-02-14T01:39:59.850Z,99032
2018-02-14T01:42:05.832Z,99030
2018-02-14T01:44:11.945Z,99036
2018-02-14T01:46:17.795Z,99035
2018-02-14T01:48:23.658Z,99034
2018-02-14T01:50:38.598Z,99035
2018-02-14T01:52:44.756Z,99035
2018-02-14T01:54:51.113Z,99033
2018-02-14T01:56:57.166Z,99039
2018-02-14T01:59:03.566Z,99030
2018-02-14T02:01:09.416Z,99036
2018-02-14T02:03:15.145Z,99038
2018-02-14T02:05:21.397Z,99035
2018-02-14T02:07:27.465Z,99043
2018-02-14T02:09:33.316Z,99050
2018-02-14T02:11:39.701Z,99049
2018-02-14T02:13:45.627Z,99039
2018-02-14T02:15:51.452Z,99047
2018-02-14T02:17:56.980Z,99047
2018-02-14T02:20:03.350Z,99045
2018-02-14T02:22:09.138Z,99052
2018-02-14T02:24:14.560Z,99048
2018-02-14T02:26:20.661Z,99049
2018-02-14T02:28:26.977Z,99045
2018-02-14T02:30:33.201Z,99042
2018-02-14T02:32:39.251Z,99052
2018-02-14T02:34:45.202Z,99052
2018-02-14T02:36:51.947Z,99045
2018-02-14T02:38:59.613Z,99054
2018-02-14T02:41:05.980Z,99054
2018-02-14T02:43:12.164Z,99060
2018-02-14T02:45:18.860Z,99061
2018-02-14T02:47:25.002Z,99064
2018-02-14T02:49:31.890Z,99063
2018-02-14T02:51:38.221Z,99065
2018-02-14T02:53:44.066Z,99065
2018-02-14T02:55:49.770Z,99067
2018-02-14T02:57:56.102Z,99068
2018-02-14T03:00:02.124Z,99069
2018-02-14T03:02:08.175Z,99071
2018-02-14T03:04:14.839Z,99075
2018-02-14T03:06:20.987Z,99077
2018-02-14T03:08:28.501Z,99074
2018-02-14T03:10:34.564Z,99079
2018-02-14T03:12:41.255Z,99078
2018-02-14T03:14:47.685Z,99080
2018-02-14T03:16:53.852Z,99084
2018-02-14T03:19:00.180Z,99084
2018-02-14T03:21:06.995Z,99089
2018-02-14T03:23:13.806Z,99086
2018-02-14T03:25:19.855Z,99083
2018-02-14T03:27:25.850Z,99087
2018-02-14T03:29:31.944Z,99087
2018-02-14T03:31:37.965Z,99087
2018-02-14T03:33:43.840Z,99091
2018-02-14T03:35:50.622Z,99090
2018-02-14T03:37:56.948Z,99095
2018-02-14T03:40:03.264Z,99093
2018-02-14T03:42:09.278Z,99099
2018-02-14T03:44:15.044Z,99104
2018-02-14T03:46:21.144Z,99100
2018-02-14T03:48:27.059Z,99103
2018-02-14T03:50:32.987Z,99102
2018-02-14T03:52:39.104Z,99103
2018-02-14T03:54:45.215Z,99103
2018-02-14T03:56:51.708Z,99108
2018-02-14T03:58:57.552Z,99105
2018-02-14T04:01:03.779Z,99111
2018-02-14T04:03:09.811Z,99115
2018-02-14T04:05:15.744Z,99117
2018-02-14T04:07:21.856Z,99124
2018-02-14T04:09:27.580Z,99122
2018-02-14T04:11:33.396Z,99133
2018-02-14T04:13:39.611Z,99137
2018-02-14T04:15:45.750Z,99138
2018-02-14T04:17:51.484Z,99140
2018-02-14T04:19:57.291Z,99139
2018-02-14T04:22:03.512Z,99139
2018-02-14T04:24:09.994Z,99142
2018-02-14T04:26:15.829Z,99144
2018-02-14T04:28:22.020Z,99146
2018-02-14T04:30:28.445Z,99151
2018-02-14T04:32:34.052Z,99150
2018-02-14T04:34:39.895Z,99156
2018-02-14T04:36:45.717Z,99158
2018-02-14T04:38:52.000Z,99166
2018-02-14T04:40:57.954Z,99161
2018-02-14T04:43:03.786Z,99166
2018-02-14T04:45:09.836Z,99166
2018-02-14T04:47:16.016Z,99163
2018-02-14T04:49:22.188Z,99167
2018-02-14T04:51:27.414Z,99167
2018-02-14T04:53:33.060Z,99171
2018-02-14T04:55:39.195Z,99168
2018-02-14T04:57:45.557Z,99173
2018-02-14T04:59:51.460Z,99175
2018-02-14T05:01:57.584Z,99169
2018-02-14T05:04:02.856Z,99168
2018-02-14T05:06:08.068Z,99175
2018-02-14T05:08:13.999Z,99179
2018-02-14T05:10:20.153Z,99182
2018-02-14T05:12:26.367Z,99187
2018-02-14T05:14:32.276Z,99187
2018-02-14T05:16:38.368Z,99194
2018-02-14T05:18:44.840Z,99196
2018-02-14T05:20:50.675Z,99207
2018-02-14T05:22:56.751Z,99202
2018-02-14T05:25:02.758Z,99207
2018-02-14T05:27:08.690Z,99218
2018-02-14T05:29:14.790Z,99216
2018-02-14T05:31:20.640Z,99216
2018-02-14T05:33:26.039Z,99215
2018-02-14T05:35:32.099Z,99216
2018-02-14T05:37:38.392Z,99216
2018-02-14T05:39:43.724Z,99222
2018-02-14T05:41:49.580Z,99215
2018-02-14T05:43:55.496Z,99218
2018-02-14T05:46:01.837Z,99225
2018-02-14T05:48:07.325Z,99225
2018-02-14T05:50:13.077Z,99222
2018-02-14T05:52:18.389Z,99225
2018-02-14T05:54:23.932Z,99227
2018-02-14T05:56:29.612Z,99235
2018-02-14T05:58:34.896Z,99241
2018-02-14T06:00:40.462Z,99238
2018-02-14T06:02:45.848Z,99240
2018-02-14T06:04:51.208Z,99244
2018-02-14T06:06:57.071Z,99251
2018-02-14T06:09:02.728Z,99255
2018-02-14T06:11:08.050Z,99261
2018-02-14T06:13:14.006Z,99259
2018-02-14T06:15:19.287Z,99264
2018-02-14T06:17:25.421Z,99269
2018-02-14T06:19:31.593Z,99266
2018-02-14T06:21:36.928Z,99269
2018-02-14T06:23:42.431Z,99275
2018-02-14T06:25:48.049Z,99274
2018-02-14T06:27:53.372Z,99278
2018-02-14T06:29:59.165Z,99276
2018-02-14T06:32:05.212Z,99278
2018-02-14T06:34:10.484Z,99286
2018-02-14T06:36:16.184Z,99285
2018-02-14T06:38:22.313Z,99287
2018-02-14T06:40:27.666Z,99294
2018-02-14T06:42:32.989Z,99298
2018-02-14T06:44:38.526Z,99301
2018-02-14T06:46:44.180Z,99306
2018-02-14T06:48:49.530Z,99301
2018-02-14T06:50:55.466Z,99297
2018-02-14T06:53:01.382Z,99300
2018-02-14T06:55:07.407Z,99299
2018-02-14T06:57:12.916Z,99307
2018-02-14T06:59:18.640Z,99309
2018-02-14T07:01:24.210Z,99306
2018-02-14T07:03:30.088Z,99308
2018-02-14T07:05:35.397Z,99308
2018-02-14T07:07:41.211Z,99316
2018-02-14T07:09:47.925Z,99320
2018-02-14T07:11:53.996Z,99321
2018-02-14T07:14:00.426Z,99327
2018-02-14T07:16:06.305Z,99326
2018-02-14T07:18:11.668Z,99319
2018-02-14T07:20:18.508Z,99325
2018-02-14T07:22:24.927Z,99324
2018-02-14T07:24:30.772Z,99324
2018-02-14T07:26:36.097Z,99327
2018-02-14T07:28:41.425Z,99326
2018-02-14T07:30:47.503Z,99329
2018-02-14T07:32:52.780Z,99326
2018-02-14T07:34:58.245Z,99336
2018-02-14T07:37:03.679Z,99338
2018-02-14T07:39:09.483Z,99331
2018-02-14T07:41:15.375Z,99332
2018-02-14T07:43:21.859Z,99341
2018-02-14T07:45:27.227Z,99343
2018-02-14T07:47:32.792Z,99346
2018-02-14T07:49:38.132Z,99352
2018-02-14T07:51:43.464Z,99349
2018-02-14T07:53:49.721Z,99344
2018-02-14T07:55:55.036Z,99345
2018-02-14T07:58:00.401Z,99341
2018-02-14T08:00:06.327Z,99339
2018-02-14T08:02:12.908Z,99346
2018-02-14T08:04:18.263Z,99345
2018-02-14T08:06:23.896Z,99339
2018-02-14T08:08:30.350Z,99353
2018-02-14T08:10:36.456Z,99362
2018-02-14T08:12:42.588Z,99359
2018-02-14T08:14:49.023Z,99358
2018-02-14T08:16:54.524Z,99359
2018-02-14T08:19:00.032Z,99362
2018-02-14T08:21:05.791Z,99362
2018-02-14T08:23:12.521Z,99356
2018-02-14T08:25:17.936Z,99359
2018-02-14T08:27:23.556Z,99357
2018-02-14T08:29:29.820Z,99356
2018-02-14T08:31:35.224Z,99356
2018-02-14T08:33:41.169Z,99356
2018-02-14T08:35:46.516Z,99362
2018-02-14T08:37:51.885Z,99360
2018-02-14T08:39:58.095Z,99366
2018-02-14T08:42:03.526Z,99368
2018-02-14T08:44:08.970Z,99376
2018-02-14T08:46:14.640Z,99378
2018-02-14T08:48:20.313Z,99377
2018-02-14T08:50:25.730Z,99385
2018-02-14T08:52:31.039Z,99378
2018-02-14T08:54:36.725Z,99379
2018-02-14T08:56:42.737Z,99380
2018-02-14T08:58:48.034Z,99381
2018-02-14T09:00:53.388Z,99385
2018-02-14T09:02:59.048Z,99386
2018-02-14T09:05:04.370Z,99385
2018-02-14T09:07:10.027Z,99394
2018-02-14T09:09:15.952Z,99396
2018-02-14T09:11:21.353Z,99394
2018-02-14T09:13:27.305Z,99413
2018-02-14T09:15:32.968Z,99416
2018-02-14T09:17:38.612Z,99416
2018-02-14T09:19:43.949Z,99418
2018-02-14T09:21:49.293Z,99416
2018-02-14T09:23:54.991Z,99417
2018-02-14T09:26:00.581Z,99413
2018-02-14T09:28:05.952Z,99414
2018-02-14T09:30:11.458Z,99414
2018-02-14T09:32:17.066Z,99408
2018-02-14T09:34:22.608Z,99419
2018-02-14T09:36:28.548Z,99418
2018-02-14T09:38:34.576Z,99419
2018-02-14T09:40:40.871Z,99427
2018-02-14T09:44:55.627Z,99419
2018-02-14T09:47:01.291Z,99421
2018-02-14T09:49:06.799Z,99414
2018-02-14T09:51:12.101Z,99422
2018-02-14T09:53:17.659Z,99425
2018-02-14T09:55:23.078Z,99419
2018-02-14T09:57:28.912Z,99423
2018-02-14T09:59:34.512Z,99424
2018-02-14T10:01:40.230Z,99424
2018-02-14T10:03:45.559Z,99431
2018-02-14T10:05:51.276Z,99436
2018-02-14T10:07:56.688Z,99435
2018-02-14T10:10:02.036Z,99437
2018-02-14T10:12:08.452Z,99441
2018-02-14T10:14:14.215Z,99440
2018-02-14T10:16:20.691Z,99440
2018-02-14T10:18:26.765Z,99443
2018-02-14T10:20:32.024Z,99445
2018-02-14T10:22:37.289Z,99449
2018-02-14T10:24:43.057Z,99454
2018-02-14T10:26:48.930Z,99450
2018-02-14T10:28:54.220Z,99449
2018-02-14T10:30:59.872Z,99448
2018-02-14T10:33:05.240Z,99448
2018-02-14T10:35:11.864Z,99446
2018-02-14T10:37:18.060Z,99448
2018-02-14T10:39:23.372Z,99442
2018-02-14T10:41:28.744Z,99447
2018-02-14T10:43:35.005Z,99441
2018-02-14T10:45:40.958Z,99439
2018-02-14T10:47:46.954Z,99446
2018-02-14T10:49:52.991Z,99443
2018-02-14T10:51:59.079Z,99442
2018-02-14T10:54:04.583Z,99448
2018-02-14T10:56:10.085Z,99446
2018-02-14T10:58:16.176Z,99447
2018-02-14T11:00:25.520Z,99449
2018-02-14T11:02:37.896Z,99450
2018-02-14T11:04:48.546Z,99447
2018-02-14T11:06:55.160Z,99449
2018-02-14T11:09:00.781Z,99447
2018-02-14T11:11:06.489Z,99445
2018-02-14T11:13:12.191Z,99440
2018-02-14T11:15:17.799Z,99441
2018-02-14T11:17:23.089Z,99437
2018-02-14T11:19:28.372Z,99435
2018-02-14T11:21:33.995Z,99437
2018-02-14T11:23:39.226Z,99434
2018-02-14T11:25:44.485Z,99431
2018-02-14T11:27:50.061Z,99429
2018-02-14T11:29:55.361Z,99423
2018-02-14T11:32:00.734Z,99427
2018-02-14T11:34:06.615Z,99427
2018-02-14T11:36:12.744Z,99431
2018-02-14T11:38:18.330Z,99434
2018-02-14T11:40:25.401Z,99432
2018-02-14T11:42:30.765Z,99435
2018-02-14T11:44:36.016Z,99425
2018-02-14T11:46:41.554Z,99428
2018-02-14T11:48:46.835Z,99421
2018-02-14T11:50:52.203Z,99421
2018-02-14T11:52:58.104Z,99415
2018-02-14T11:55:03.464Z,99417
2018-02-14T11:57:08.741Z,99418
2018-02-14T11:59:14.400Z,99414
2018-02-14T12:01:19.864Z,99414
2018-02-14T12:03:29.190Z,99406
2018-02-14T12:05:36.393Z,99413
2018-02-14T12:07:41.847Z,99409
2018-02-14T12:09:48.153Z,99415
2018-02-14T12:11:53.728Z,99406
2018-02-14T12:14:00.810Z,99407
2018-02-14T12:16:06.416Z,99402
2018-02-14T12:18:13.309Z,99394
2018-02-14T12:20:18.718Z,99396
2018-02-14T12:22:25.191Z,99397
2018-02-14T12:24:31.792Z,99394
2018-02-14T12:26:37.095Z,99393
2018-02-14T12:28:43.214Z,99393
2018-02-14T12:30:49.848Z,99385
2018-02-14T12:32:57.310Z,99388
2018-02-14T12:35:02.636Z,99390
2018-02-14T12:37:09.237Z,99387
2018-02-14T12:39:14.808Z,99388
2018-02-14T12:41:20.190Z,99380
2018-02-14T12:45:35.763Z,99364
2018-02-14T12:47:42.074Z,99372
2018-02-14T12:49:48.039Z,99364
2018-02-14T12:51:53.472Z,99361
2018-02-14T12:53:59.551Z,99358
2018-02-14T12:56:05.210Z,99360
2018-02-14T12:58:10.595Z,99364
2018-02-14T13:00:16.007Z,99363
2018-02-14T13:02:21.656Z,99372
2018-02-14T13:04:26.996Z,99380
2018-02-14T13:06:32.381Z,99370
2018-02-14T13:08:38.093Z,99361
2018-02-14T13:10:43.394Z,99367
2018-02-14T13:12:48.757Z,99369
2018-02-14T13:14:54.393Z,99365
2018-02-14T13:16:59.733Z,99366
2018-02-14T13:19:05.787Z,99365
2018-02-14T13:21:11.400Z,99359
2018-02-14T13:23:16.731Z,99362
2018-02-14T13:25:22.016Z,99353
2018-02-14T13:27:27.601Z,99352
2018-02-14T13:29:32.955Z,99356
2018-02-14T13:31:38.200Z,99356
2018-02-14T13:33:44.208Z,99370
2018-02-14T13:35:49.684Z,99362
2018-02-14T13:37:55.225Z,99363
2018-02-14T13:40:00.890Z,99362
2018-02-14T13:42:06.286Z,99365
2018-02-14T13:44:11.605Z,99369
2018-02-14T13:46:18.229Z,99365
2018-02-14T13:48:23.608Z,99361
2018-02-14T13:50:28.952Z,99367
2018-02-14T13:52:34.599Z,99365
2018-02-14T13:54:39.986Z,99360
2018-02-14T13:56:45.323Z,99373
2018-02-14T13:58:50.932Z,99375
2018-02-14T14:00:56.276Z,99374
2018-02-14T14:03:01.556Z,99370
2018-02-14T14:05:07.307Z,99379
2018-02-14T14:07:12.638Z,99379
2018-02-14T14:09:18.012Z,99385
2018-02-14T14:11:24.284Z,99390
2018-02-14T14:13:29.922Z,99385
2018-02-14T14:15:35.224Z,99390
2018-02-14T14:17:40.825Z,99386
2018-02-14T14:19:46.152Z,99381
2018-02-14T14:21:51.436Z,99386
2018-02-14T14:23:57.032Z,99383
2018-02-14T14:26:02.287Z,99390
2018-02-14T14:28:09.168Z,99387
2018-02-14T14:30:14.824Z,99382
2018-02-14T14:32:20.173Z,99387
2018-02-14T14:34:29.749Z,99388
2018-02-14T14:36:35.413Z,99387
2018-02-14T14:38:40.917Z,99391
2018-02-14T14:40:46.208Z,99393
2018-02-14T14:42:51.790Z,99385
2018-02-14T14:44:57.131Z,99394
2018-02-14T14:47:02.413Z,99395
2018-02-14T14:49:07.980Z,99399
2018-02-14T14:51:13.284Z,99400
2018-02-14T14:53:18.613Z,99400
2018-02-14T14:55:28.687Z,99401
2018-02-14T14:57:33.980Z,99407
2018-02-14T14:59:39.444Z,99402
2018-02-14T15:01:45.029Z,99402
2018-02-14T15:03:50.468Z,99406
2018-02-14T15:05:55.808Z,99400
2018-02-14T15:08:01.443Z,99399
2018-02-14T15:10:06.886Z,99401
2018-02-14T15:12:12.271Z,99404
2018-02-14T15:14:17.784Z,99401
2018-02-14T15:16:23.191Z,99399
2018-02-14T15:18:28.498Z,99407
2018-02-14T15:20:35.311Z,99409
2018-02-14T15:22:40.656Z,99408
2018-02-14T15:24:46.100Z,99400
2018-02-14T15:26:51.761Z,99411
2018-02-14T15:28:57.128Z,99415
2018-02-14T15:31:02.503Z,99418
2018-02-14T15:33:08.072Z,99417
2018-02-14T15:35:13.416Z,99419
2018-02-14T15:37:18.755Z,99418
2018-02-14T15:39:24.300Z,99419
2018-02-14T15:41:29.580Z,99424
2018-02-14T15:43:34.936Z,99419
2018-02-14T15:45:40.585Z,99420
2018-02-14T15:47:45.845Z,99418
2018-02-14T15:49:51.056Z,99414
2018-02-14T15:51:56.670Z,99416
2018-02-14T15:54:02.016Z,99416
2018-02-14T15:56:07.323Z,99415
2018-02-14T15:58:12.937Z,99413
2018-02-14T16:00:18.307Z,99421
2018-02-14T16:02:23.577Z,99422
2018-02-14T16:04:30.078Z,99417
2018-02-14T16:06:35.377Z,99420
2018-02-14T16:08:40.785Z,99423
2018-02-14T16:10:46.429Z,99427
2018-02-14T16:12:51.793Z,99425
2018-02-14T16:14:57.146Z,99433
2018-02-14T16:17:02.730Z,99428
2018-02-14T16:19:08.123Z,99427
2018-02-14T16:21:13.440Z,99433
2018-02-14T16:23:19.328Z,99431
2018-02-14T16:25:24.647Z,99433
2018-02-14T16:27:29.932Z,99435
2018-02-14T16:29:35.567Z,99438
2018-02-14T16:31:41.492Z,99437
2018-02-14T16:33:46.767Z,99447
2018-02-14T16:35:52.277Z,99448
2018-02-14T16:37:57.541Z,99444
2018-02-14T16:40:02.934Z,99452
2018-02-14T16:42:08.536Z,99454
2018-02-14T16:44:13.804Z,99454
2018-02-14T16:46:19.222Z,99456
2018-02-14T16:48:24.899Z,99462
2018-02-14T16:50:30.157Z,99466
2018-02-14T16:52:35.439Z,99471
2018-02-14T16:54:41.057Z,99470
2018-02-14T16:56:48.845Z,99477
2018-02-14T16:58:54.156Z,99472
2018-02-14T17:01:00.442Z,99476
2018-02-14T17:03:05.868Z,99471
2018-02-14T17:05:11.224Z,99472
2018-02-14T17:07:17.081Z,99464
2018-02-14T17:09:22.444Z,99470
2018-02-14T17:11:27.839Z,99475
2018-02-14T17:13:33.442Z,99470
2018-02-14T17:15:39.900Z,99476
2018-02-14T17:17:45.258Z,99477
2018-02-14T17:19:50.966Z,99474
2018-02-14T17:21:56.363Z,99489
2018-02-14T17:24:02.065Z,99482
2018-02-14T17:26:07.722Z,99492
2018-02-14T17:28:13.108Z,99488
2018-02-14T17:30:18.443Z,99491
2018-02-14T17:32:24.048Z,99487
2018-02-14T17:34:29.357Z,99494
2018-02-14T17:36:34.761Z,99496
2018-02-14T17:38:40.568Z,99499
2018-02-14T17:40:45.909Z,99512
2018-02-14T17:42:51.313Z,99510
2018-02-14T17:44:57.034Z,99505
2018-02-14T17:47:02.448Z,99502
2018-02-14T17:49:07.810Z,99512
2018-02-14T17:51:13.556Z,99512
2018-02-14T17:53:18.945Z,99508
2018-02-14T17:55:24.266Z,99514
2018-02-14T17:57:29.912Z,99515
2018-02-14T17:59:35.263Z,99518
2018-02-14T18:01:40.662Z,99514
2018-02-14T18:03:46.396Z,99522
2018-02-14T18:05:51.786Z,99530
2018-02-14T18:07:57.151Z,99534
2018-02-14T18:10:02.753Z,99541
2018-02-14T18:12:08.135Z,99543
2018-02-14T18:14:13.430Z,99534
2018-02-14T18:16:19.080Z,99539
2018-02-14T18:18:24.373Z,99544
2018-02-14T18:20:29.838Z,99541
2018-02-14T18:22:35.520Z,99544
2018-02-14T18:24:41.060Z,99551
2018-02-14T18:26:46.399Z,99560
2018-02-14T18:28:52.152Z,99552
2018-02-14T18:30:57.681Z,99556
2018-02-14T18:33:03.761Z,99556
2018-02-14T18:35:09.643Z,99559
2018-02-14T18:37:15.085Z,99554
2018-02-14T18:39:20.882Z,99558
2018-02-14T18:41:26.585Z,99562
2018-02-14T18:43:32.074Z,99554
2018-02-14T18:45:37.734Z,99562
2018-02-14T18:47:43.420Z,99558
2018-02-14T18:49:48.839Z,99556
2018-02-14T18:51:54.246Z,99555
2018-02-14T18:53:59.873Z,99554
2018-02-14T18:56:05.232Z,99568
2018-02-14T18:58:11.670Z,99565
2018-02-14T19:00:17.665Z,99562
2018-02-14T19:02:23.245Z,99554
2018-02-14T19:04:28.973Z,99557
2018-02-14T19:06:35.155Z,99558
2018-02-14T19:08:40.709Z,99560
2018-02-14T19:10:46.242Z,99562
2018-02-14T19:12:51.964Z,99564
2018-02-14T19:14:57.332Z,99564
2018-02-14T19:17:02.739Z,99569
2018-02-14T19:19:08.741Z,99569
2018-02-14T19:21:14.160Z,99570
2018-02-14T19:23:19.513Z,99565
2018-02-14T19:25:25.303Z,99574
2018-02-14T19:27:31.996Z,99565
2018-02-14T19:29:38.940Z,99574
2018-02-14T19:31:44.657Z,99571
2018-02-14T19:33:50.356Z,99570
2018-02-14T19:35:56.261Z,99566
2018-02-14T19:38:02.652Z,99560
2018-02-14T19:40:08.235Z,99561
2018-02-14T19:42:14.200Z,99564
2018-02-14T19:44:21.016Z,99558
2018-02-14T19:46:26.780Z,99562
2018-02-14T19:48:32.441Z,99555
2018-02-14T19:50:38.192Z,99559
2018-02-14T19:52:43.644Z,99548
2018-02-14T19:54:49.798Z,99549
2018-02-14T19:56:56.119Z,99545
2018-02-14T19:59:01.763Z,99551
2018-02-14T20:01:07.237Z,99550
2018-02-14T20:03:13.371Z,99546
2018-02-14T20:05:18.851Z,99540
2018-02-14T20:07:30.522Z,99538
2018-02-14T20:09:36.602Z,99539
2018-02-14T20:11:42.450Z,99540
2018-02-14T20:13:48.292Z,99543
2018-02-14T20:15:54.336Z,99540
2018-02-14T20:18:00.018Z,99540
2018-02-14T20:20:05.812Z,99538
2018-02-14T20:22:11.826Z,99536
2018-02-14T20:24:17.462Z,99531
2018-02-14T20:26:23.509Z,99532
2018-02-14T20:28:29.450Z,99537
2018-02-14T20:30:35.074Z,99534
2018-02-14T20:32:40.915Z,99531
2018-02-14T20:34:46.660Z,99526
2018-02-14T20:36:52.089Z,99529
2018-02-14T20:38:57.584Z,99532
2018-02-14T20:41:04.024Z,99532
2018-02-14T20:43:09.462Z,99531
2018-02-14T20:45:14.933Z,99539
2018-02-14T20:47:20.601Z,99540
2018-02-14T20:49:25.948Z,99537
2018-02-14T20:51:31.837Z,99537
2018-02-14T20:53:37.493Z,99546
2018-02-14T20:55:44.015Z,99548
2018-02-14T20:57:49.977Z,99550
2018-02-14T20:59:55.718Z,99553
2018-02-14T21:02:01.961Z,99541
2018-02-14T21:04:07.900Z,99546
2018-02-14T21:06:14.540Z,99544
2018-02-14T21:08:20.208Z,99544
2018-02-14T21:10:26.261Z,99542
2018-02-14T21:12:32.430Z,99555
2018-02-14T21:14:38.902Z,99539
2018-02-14T21:16:44.752Z,99537
2018-02-14T21:18:51.448Z,99534
2018-02-14T21:20:59.096Z,99520
2018-02-14T21:23:05.979Z,99521
2018-02-14T21:25:12.617Z,99514
2018-02-14T21:27:19.095Z,99513
2018-02-14T21:29:25.228Z,99499
2018-02-14T21:31:32.046Z,99501
2018-02-14T21:33:38.123Z,99497
2018-02-14T21:35:43.379Z,99497
2018-02-14T21:37:49.531Z,99494
2018-02-14T21:39:55.475Z,99489
2018-02-14T21:42:01.171Z,99481
2018-02-14T21:44:06.914Z,99479
2018-02-14T21:46:12.519Z,99482
2018-02-14T21:48:17.976Z,99481
2018-02-14T21:50:23.616Z,99479
2018-02-14T21:52:28.964Z,99472
2018-02-14T21:54:34.968Z,99474
2018-02-14T21:56:41.172Z,99470
2018-02-14T21:58:46.872Z,99468
2018-02-14T22:00:53.058Z,99459
2018-02-14T22:02:59.032Z,99458
2018-02-14T22:05:04.411Z,99461
2018-02-14T22:07:10.143Z,99466
2018-02-14T22:09:15.952Z,99464
2018-02-14T22:11:22.106Z,99461
2018-02-14T22:13:28.202Z,99452
2018-02-14T22:15:35.005Z,99457
2018-02-14T22:17:40.791Z,99458
2018-02-14T22:19:46.196Z,99457
2018-02-14T22:21:52.000Z,99453
2018-02-14T22:23:57.876Z,99452
2018-02-14T22:26:03.513Z,99464
2018-02-14T22:28:09.417Z,99465
2018-02-14T22:30:16.121Z,99477
2018-02-14T22:32:21.705Z,99471
2018-02-14T22:34:27.969Z,99468
2018-02-14T22:36:33.472Z,99465
2018-02-14T22:38:39.241Z,99467
2018-02-14T22:40:45.664Z,99467
2018-02-14T22:42:51.317Z,99458
2018-02-14T22:44:57.125Z,99466
2018-02-14T22:47:02.744Z,99477
2018-02-14T22:49:08.520Z,99480
2018-02-14T22:51:13.937Z,99485
2018-02-14T22:53:19.912Z,99482
2018-02-14T22:55:25.634Z,99473
2018-02-14T22:57:31.148Z,99472
2018-02-14T22:59:36.888Z,99478
2018-02-14T23:01:42.178Z,99482
2018-02-14T23:03:47.866Z,99469
2018-02-14T23:05:54.015Z,99462
2018-02-14T23:07:59.654Z,99463
2018-02-14T23:10:05.286Z,99462
2018-02-14T23:12:10.906Z,99460
2018-02-14T23:14:16.494Z,99456
2018-02-14T23:16:22.011Z,99441
2018-02-14T23:18:29.174Z,99451
2018-02-14T23:20:36.302Z,99450
2018-02-14T23:22:41.827Z,99448
2018-02-14T23:24:48.528Z,99451
2018-02-14T23:26:54.120Z,99444
2018-02-14T23:29:00.249Z,99430
2018-02-14T23:31:06.125Z,99435
2018-02-14T23:33:11.475Z,99444
2018-02-14T23:35:16.878Z,99436
2018-02-14T23:37:23.371Z,99440
2018-02-14T23:39:29.370Z,99440
2018-02-14T23:41:35.114Z,99429
2018-02-14T23:43:40.870Z,99428
2018-02-14T23:45:46.788Z,99429
2018-02-14T23:47:53.312Z,99427
2018-02-14T23:49:59.708Z,99420
2018-02-14T23:52:05.000Z,99420
2018-02-14T23:54:10.840Z,99422
2018-02-14T23:56:16.938Z,99422
2018-02-14T23:58:23.124Z,99422
